createdAt,value
2022-09-07T00:00:50.774Z,20.1
2022-09-07T00:01:51.373Z,20.2
2022-09-07T00:02:52.027Z,20.0
2022-09-07T00:03:52.597Z,20.2
2022-09-07T00:04:53.176Z,20.2
2022-09-07T00:05:53.774Z,20.1
2022-09-07T00:06:54.369Z,20.1
2022-09-07T00:07:54.973Z,20.2
2022-09-07T00:08:55.561Z,20.1
2022-09-07T00:09:56.159Z,20.2
2022-09-07T00:10:56.754Z,20.1
2022-09-07T00:11:57.351Z,20.0
2022-09-07T00:12:57.944Z,20.2
2022-09-07T00:13:58.560Z,20.1
2022-09-07T00:14:59.158Z,20.2
2022-09-07T00:15:59.788Z,20.2
2022-09-07T00:17:00.353Z,20.2
2022-09-07T00:18:00.963Z,20.2
2022-09-07T00:19:01.563Z,20.2
2022-09-07T00:20:02.158Z,20.2
2022-09-07T00:21:02.754Z,20.1
2022-09-07T00:22:03.350Z,20.2
2022-09-07T00:23:03.943Z,20.0
2022-09-07T00:24:04.541Z,20.1
2022-09-07T00:25:05.140Z,20.2
2022-09-07T00:26:05.734Z,20.1
2022-09-07T00:27:06.329Z,20.1
2022-09-07T00:28:06.924Z,20.1
2022-09-07T00:29:07.523Z,20.1
2022-09-07T00:30:08.119Z,20.1
2022-09-07T00:31:08.752Z,20.1
2022-09-07T00:32:09.312Z,20.1
2022-09-07T00:33:09.926Z,20.2
2022-09-07T00:34:10.527Z,20.1
2022-09-07T00:35:11.119Z,20.1
2022-09-07T00:36:11.716Z,20.3
2022-09-07T00:37:12.310Z,20.3
2022-09-07T00:38:12.907Z,20.3
2022-09-07T00:39:13.500Z,20.3
2022-09-07T00:40:14.098Z,20.3
2022-09-07T00:41:14.690Z,20.3
2022-09-07T00:42:15.286Z,20.4
2022-09-07T00:43:15.886Z,20.4
2022-09-07T00:44:16.478Z,20.3
2022-09-07T00:45:17.075Z,20.4
2022-09-07T00:46:17.746Z,20.4
2022-09-07T00:47:18.301Z,20.4
2022-09-07T00:48:18.899Z,20.4
2022-09-07T00:49:19.491Z,20.4
2022-09-07T00:50:20.087Z,20.4
2022-09-07T00:51:20.685Z,20.5
2022-09-07T00:52:21.280Z,20.4
2022-09-07T00:53:21.894Z,20.3
2022-09-07T00:54:22.492Z,20.4
2022-09-07T00:55:23.088Z,20.3
2022-09-07T00:56:23.684Z,20.4
2022-09-07T00:57:24.301Z,20.3
2022-09-07T00:58:24.951Z,20.3
2022-09-07T00:59:25.548Z,20.3
2022-09-07T01:00:26.146Z,20.3
2022-09-07T01:01:26.833Z,20.2
2022-09-07T01:02:27.574Z,20.2
2022-09-07T01:03:28.074Z,20.3
2022-09-07T01:04:28.669Z,20.3
2022-09-07T01:05:29.278Z,20.4
2022-09-07T01:06:29.861Z,20.4
2022-09-07T01:07:30.455Z,20.4
2022-09-07T01:08:31.221Z,20.4
2022-09-07T01:09:31.878Z,20.5
2022-09-07T01:10:32.474Z,20.4
2022-09-07T01:11:33.070Z,20.4
2022-09-07T01:12:33.665Z,20.4
2022-09-07T01:13:34.260Z,20.4
2022-09-07T01:14:34.857Z,20.4
2022-09-07T01:15:35.472Z,20.3
2022-09-07T01:16:36.046Z,20.4
2022-09-07T01:17:36.639Z,20.4
2022-09-07T01:18:37.234Z,20.3
2022-09-07T01:19:37.829Z,20.3
2022-09-07T01:20:38.425Z,20.4
2022-09-07T01:21:39.019Z,20.3
2022-09-07T01:22:39.617Z,20.3
2022-09-07T01:23:40.212Z,20.4
2022-09-07T01:24:40.809Z,20.4
2022-09-07T01:25:41.424Z,20.4
2022-09-07T01:26:42.021Z,20.3
2022-09-07T01:27:42.614Z,20.4
2022-09-07T01:28:43.219Z,20.3
2022-09-07T01:29:43.828Z,20.2
2022-09-07T01:30:44.475Z,20.3
2022-09-07T01:31:45.018Z,20.2
2022-09-07T01:32:45.620Z,20.3
2022-09-07T01:33:46.231Z,20.2
2022-09-07T01:34:46.827Z,20.1
2022-09-07T01:35:47.420Z,20.1
2022-09-07T01:36:48.040Z,20.2
2022-09-07T01:37:48.648Z,20.1
2022-09-07T01:38:49.245Z,20.2
2022-09-07T01:39:49.916Z,20.1
2022-09-07T01:40:50.472Z,20.2
2022-09-07T01:41:51.086Z,20.0
2022-09-07T01:42:51.683Z,20.1
2022-09-07T01:43:52.280Z,20.0
2022-09-07T01:44:52.873Z,20.0
2022-09-07T01:45:53.489Z,20.0
2022-09-07T01:46:54.094Z,20.1
2022-09-07T01:47:54.692Z,20.0
2022-09-07T01:48:55.307Z,20.0
2022-09-07T01:49:55.902Z,20.0
2022-09-07T01:50:56.500Z,20.0
2022-09-07T01:51:57.092Z,19.9
2022-09-07T01:52:57.687Z,20.0
2022-09-07T01:53:58.284Z,19.9
2022-09-07T01:54:58.879Z,19.9
2022-09-07T01:55:59.472Z,20.0
2022-09-07T01:57:00.071Z,20.1
2022-09-07T01:58:00.665Z,20.1
2022-09-07T01:59:01.260Z,20.0
2022-09-07T02:00:01.854Z,20.1
2022-09-07T02:01:02.470Z,20.1
2022-09-07T02:02:03.116Z,20.1
2022-09-07T02:03:03.744Z,20.0
2022-09-07T02:04:04.314Z,20.0
2022-09-07T02:05:04.911Z,20.0
2022-09-07T02:06:05.509Z,20.0
2022-09-07T02:07:06.101Z,20.0
2022-09-07T02:08:06.699Z,20.0
2022-09-07T02:09:07.294Z,20.0
2022-09-07T02:10:07.889Z,20.1
2022-09-07T02:11:08.485Z,20.0
2022-09-07T02:12:09.099Z,20.0
2022-09-07T02:13:09.693Z,19.9
2022-09-07T02:14:10.289Z,19.9
2022-09-07T02:15:10.886Z,19.9
2022-09-07T02:16:11.651Z,20.0
2022-09-07T02:17:12.091Z,20.1
2022-09-07T02:18:12.686Z,20.2
2022-09-07T02:19:13.282Z,20.2
2022-09-07T02:20:13.875Z,20.2
2022-09-07T02:21:14.474Z,20.1
2022-09-07T02:22:15.068Z,20.2
2022-09-07T02:23:15.673Z,20.2
2022-09-07T02:24:16.258Z,20.1
2022-09-07T02:25:16.856Z,20.1
2022-09-07T02:26:17.453Z,20.1
2022-09-07T02:27:18.047Z,20.1
2022-09-07T02:28:18.642Z,20.1
2022-09-07T02:29:19.240Z,20.1
2022-09-07T02:30:19.834Z,20.0
2022-09-07T02:31:20.477Z,20.0
2022-09-07T02:32:21.023Z,20.0
2022-09-07T02:33:21.619Z,20.0
2022-09-07T02:34:22.213Z,19.9
2022-09-07T02:35:22.807Z,19.9
2022-09-07T02:36:23.405Z,19.9
2022-09-07T02:37:23.999Z,19.9
2022-09-07T02:38:24.643Z,19.9
2022-09-07T02:39:25.263Z,19.9
2022-09-07T02:40:25.812Z,19.8
2022-09-07T02:41:26.407Z,19.8
2022-09-07T02:42:27.001Z,19.8
2022-09-07T02:43:27.598Z,19.7
2022-09-07T02:44:28.194Z,19.7
2022-09-07T02:45:28.791Z,19.6
2022-09-07T02:46:29.446Z,19.6
2022-09-07T02:47:30.057Z,19.5
2022-09-07T02:48:30.784Z,19.4
2022-09-07T02:49:31.444Z,19.3
2022-09-07T02:50:32.035Z,19.3
2022-09-07T02:51:32.631Z,19.3
2022-09-07T02:52:33.227Z,19.2
2022-09-07T02:53:33.822Z,19.1
2022-09-07T02:54:34.415Z,19.1
2022-09-07T02:55:35.013Z,19.0
2022-09-07T02:56:35.608Z,19.0
2022-09-07T02:57:36.202Z,19.0
2022-09-07T02:58:36.797Z,19.0
2022-09-07T02:59:37.391Z,18.9
2022-09-07T03:00:37.989Z,18.9
2022-09-07T03:01:38.626Z,18.8
2022-09-07T03:02:39.203Z,18.8
2022-09-07T03:03:39.786Z,18.8
2022-09-07T03:04:40.380Z,18.8
2022-09-07T03:05:40.976Z,18.7
2022-09-07T03:06:41.573Z,18.7
2022-09-07T03:07:44.211Z,18.7
2022-09-07T03:08:43.756Z,18.7
2022-09-07T03:09:44.352Z,18.7
2022-09-07T03:10:44.949Z,18.7
2022-09-07T03:11:45.542Z,18.7
2022-09-07T03:12:46.157Z,18.6
2022-09-07T03:13:46.754Z,18.7
2022-09-07T03:14:47.350Z,18.6
2022-09-07T03:15:50.393Z,18.7
2022-09-07T03:16:49.533Z,18.5
2022-09-07T03:17:50.129Z,18.5
2022-09-07T03:18:50.725Z,18.6
2022-09-07T03:19:51.340Z,18.5
2022-09-07T03:20:51.937Z,18.5
2022-09-07T03:21:52.533Z,18.5
2022-09-07T03:22:53.129Z,18.5
2022-09-07T03:23:53.747Z,18.5
2022-09-07T03:24:54.341Z,18.5
2022-09-07T03:25:54.954Z,18.5
2022-09-07T03:26:55.558Z,18.4
2022-09-07T03:27:56.146Z,18.4
2022-09-07T03:28:56.741Z,18.4
2022-09-07T03:29:57.339Z,18.4
2022-09-07T03:30:57.997Z,18.4
2022-09-07T03:31:58.547Z,18.4
2022-09-07T03:32:59.143Z,18.2
2022-09-07T03:33:59.739Z,18.3
2022-09-07T03:35:00.336Z,18.3
2022-09-07T03:36:00.929Z,18.3
2022-09-07T03:37:01.530Z,18.4
2022-09-07T03:38:02.121Z,18.2
2022-09-07T03:39:02.718Z,18.4
2022-09-07T03:40:03.392Z,18.3
2022-09-07T03:41:03.994Z,18.2
2022-09-07T03:42:04.589Z,18.2
2022-09-07T03:43:05.185Z,18.3
2022-09-07T03:44:05.807Z,18.3
2022-09-07T03:45:06.442Z,18.3
2022-09-07T03:46:07.073Z,18.4
2022-09-07T03:47:07.621Z,18.3
2022-09-07T03:48:08.215Z,18.3
2022-09-07T03:49:08.812Z,18.3
2022-09-07T03:50:09.411Z,18.3
2022-09-07T03:51:10.005Z,18.2
2022-09-07T03:52:10.598Z,18.3
2022-09-07T03:53:11.195Z,18.3
2022-09-07T03:54:11.789Z,18.3
2022-09-07T03:55:12.384Z,18.2
2022-09-07T03:56:12.978Z,18.2
2022-09-07T03:57:13.574Z,18.2
2022-09-07T03:58:14.167Z,18.2
2022-09-07T03:59:14.764Z,18.1
2022-09-07T04:00:15.356Z,18.2
2022-09-07T04:01:16.031Z,18.1
2022-09-07T04:02:16.706Z,18.2
2022-09-07T04:03:17.284Z,18.1
2022-09-07T04:04:17.874Z,18.2
2022-09-07T04:05:18.471Z,18.1
2022-09-07T04:06:19.071Z,18.1
2022-09-07T04:07:19.682Z,18.0
2022-09-07T04:08:20.277Z,18.1
2022-09-07T04:09:20.881Z,18.1
2022-09-07T04:10:21.493Z,18.1
2022-09-07T04:11:22.091Z,18.0
2022-09-07T04:12:22.683Z,17.9
2022-09-07T04:13:23.278Z,17.9
2022-09-07T04:14:23.902Z,17.9
2022-09-07T04:15:24.469Z,17.8
2022-09-07T04:16:25.098Z,17.8
2022-09-07T04:17:25.661Z,17.7
2022-09-07T04:18:26.257Z,17.7
2022-09-07T04:19:26.852Z,17.6
2022-09-07T04:20:27.445Z,17.6
2022-09-07T04:21:28.040Z,17.7
2022-09-07T04:22:28.636Z,17.7
2022-09-07T04:23:29.233Z,17.6
2022-09-07T04:24:29.828Z,17.6
2022-09-07T04:25:30.425Z,17.7
2022-09-07T04:26:31.021Z,17.6
2022-09-07T04:27:31.617Z,17.6
2022-09-07T04:28:32.294Z,17.6
2022-09-07T04:29:32.925Z,17.6
2022-09-07T04:30:33.545Z,17.6
2022-09-07T04:31:34.113Z,17.5
2022-09-07T04:32:34.708Z,17.6
2022-09-07T04:33:35.305Z,17.5
2022-09-07T04:34:35.901Z,17.4
2022-09-07T04:35:36.501Z,17.4
2022-09-07T04:36:37.098Z,17.4
2022-09-07T04:37:37.693Z,17.4
2022-09-07T04:38:38.290Z,17.4
2022-09-07T04:39:38.975Z,17.3
2022-09-07T04:40:39.528Z,17.4
2022-09-07T04:41:40.127Z,17.4
2022-09-07T04:42:40.720Z,17.4
2022-09-07T04:43:41.319Z,17.4
2022-09-07T04:44:41.912Z,17.4
2022-09-07T04:45:42.540Z,17.3
2022-09-07T04:46:43.108Z,17.4
2022-09-07T04:47:43.707Z,17.5
2022-09-07T04:48:44.306Z,17.4
2022-09-07T04:49:44.910Z,17.5
2022-09-07T04:50:45.509Z,17.5
2022-09-07T04:51:46.112Z,17.5
2022-09-07T04:52:46.708Z,17.4
2022-09-07T04:53:47.309Z,17.3
2022-09-07T04:54:47.907Z,17.3
2022-09-07T04:55:48.508Z,17.3
2022-09-07T04:56:49.105Z,17.3
2022-09-07T04:57:49.704Z,17.3
2022-09-07T04:58:50.324Z,17.4
2022-09-07T04:59:50.926Z,17.3
2022-09-07T05:00:51.586Z,17.4
2022-09-07T05:01:52.222Z,17.3
2022-09-07T05:02:52.768Z,17.3
2022-09-07T05:03:53.368Z,17.4
2022-09-07T05:04:53.970Z,17.4
2022-09-07T05:05:54.567Z,17.3
2022-09-07T05:06:55.164Z,17.3
2022-09-07T05:07:55.766Z,17.3
2022-09-07T05:08:56.363Z,17.3
2022-09-07T05:09:56.965Z,17.4
2022-09-07T05:10:57.565Z,17.3
2022-09-07T05:11:58.183Z,17.3
2022-09-07T05:12:58.803Z,17.4
2022-09-07T05:13:59.404Z,17.3
2022-09-07T05:15:00.001Z,17.3
2022-09-07T05:16:00.603Z,17.4
2022-09-07T05:17:01.253Z,17.3
2022-09-07T05:18:01.801Z,17.3
2022-09-07T05:19:02.400Z,17.2
2022-09-07T05:20:03.004Z,17.3
2022-09-07T05:21:03.603Z,17.2
2022-09-07T05:22:04.208Z,17.4
2022-09-07T05:23:04.805Z,17.2
2022-09-07T05:24:05.407Z,17.3
2022-09-07T05:25:06.007Z,17.3
2022-09-07T05:26:06.613Z,17.2
2022-09-07T05:27:07.212Z,17.4
2022-09-07T05:28:07.833Z,17.3
2022-09-07T05:31:19.621Z,17.4
2022-09-07T05:32:13.218Z,17.4
2022-09-07T05:33:13.820Z,17.3
2022-09-07T05:34:30.366Z,17.3
2022-09-07T05:35:16.013Z,17.2
2022-09-07T05:36:16.616Z,17.2
2022-09-07T05:37:17.217Z,17.2
2022-09-07T05:38:17.835Z,17.3
2022-09-07T05:39:18.437Z,17.3
2022-09-07T05:40:19.039Z,17.3
2022-09-07T05:41:19.640Z,17.3
2022-09-07T05:42:20.246Z,17.4
2022-09-07T05:43:20.843Z,17.4
2022-09-07T05:45:23.036Z,17.5
2022-09-07T05:46:23.642Z,17.5
2022-09-07T05:47:24.242Z,17.5
2022-09-07T05:48:24.873Z,17.6
2022-09-07T05:49:25.442Z,17.5
2022-09-07T05:50:26.046Z,17.6
2022-09-07T05:51:26.646Z,17.6
2022-09-07T05:52:27.247Z,17.5
2022-09-07T05:53:27.847Z,17.6
2022-09-07T05:54:28.455Z,17.7
2022-09-07T05:55:30.461Z,17.8
2022-09-07T05:56:30.642Z,17.9
2022-09-07T05:57:31.243Z,17.9
2022-09-07T05:58:32.018Z,18.0
2022-09-07T05:59:32.624Z,18.2
2022-09-07T06:00:33.225Z,18.2
2022-09-07T06:01:33.822Z,18.2
2022-09-07T06:02:38.999Z,18.2
2022-09-07T06:03:36.116Z,18.3
2022-09-07T06:04:36.680Z,18.3
2022-09-07T06:05:37.281Z,18.2
2022-09-07T06:06:37.882Z,18.3
2022-09-07T06:07:38.482Z,18.4
2022-09-07T06:08:39.086Z,18.4
2022-09-07T06:11:41.906Z,18.5
2022-09-07T06:12:44.455Z,18.5
2022-09-07T06:13:44.101Z,18.6
2022-09-07T06:14:44.705Z,18.5
2022-09-07T06:15:45.300Z,18.5
2022-09-07T06:16:45.954Z,18.2
2022-09-07T06:17:46.512Z,18.3
2022-09-07T06:18:47.115Z,18.4
2022-09-07T06:19:47.716Z,18.4
2022-09-07T06:20:48.318Z,18.4
2022-09-07T06:21:48.919Z,18.5
2022-09-07T06:22:49.520Z,18.6
2022-09-07T06:23:50.121Z,18.6
2022-09-07T06:24:50.721Z,18.5
2022-09-07T06:25:51.322Z,18.6
2022-09-07T06:26:51.943Z,18.5
2022-09-07T06:27:52.543Z,18.5
2022-09-07T06:28:57.626Z,18.7
2022-09-07T06:29:53.760Z,18.6
2022-09-07T06:30:54.370Z,18.5
2022-09-07T06:32:56.559Z,18.7
2022-09-07T06:33:57.159Z,18.5
2022-09-07T06:34:57.761Z,18.6
2022-09-07T06:35:58.362Z,18.8
2022-09-07T06:36:58.964Z,19.1
2022-09-07T06:37:59.565Z,19.6
2022-09-07T06:39:00.168Z,20.0
2022-09-07T06:40:00.840Z,20.5
2022-09-07T06:42:02.990Z,21.8
2022-09-07T06:43:03.590Z,22.0
2022-09-07T06:44:04.191Z,22.0
2022-09-07T06:45:04.794Z,22.1
2022-09-07T06:47:06.991Z,21.8
2022-09-07T06:48:07.590Z,21.6
2022-09-07T06:49:08.195Z,21.5
2022-09-07T06:50:08.797Z,21.4
2022-09-07T06:51:09.396Z,21.6
2022-09-07T06:52:09.995Z,21.6
2022-09-07T06:55:13.787Z,20.9
2022-09-07T06:56:14.388Z,21.0
2022-09-07T06:57:14.992Z,21.1
2022-09-07T06:58:15.593Z,21.0
2022-09-07T06:59:16.217Z,20.6
2022-09-07T07:00:16.818Z,20.3
2022-09-07T07:01:17.471Z,20.3
2022-09-07T07:02:18.019Z,20.7
2022-09-07T07:03:18.697Z,21.0
2022-09-07T07:04:19.233Z,21.2
2022-09-07T07:05:19.839Z,21.4
2022-09-07T07:06:20.438Z,21.5
2022-09-07T07:07:21.042Z,21.7
2022-09-07T07:08:21.643Z,22.1
2022-09-07T07:09:22.265Z,22.3
2022-09-07T07:10:24.980Z,22.7
2022-09-07T07:11:24.462Z,23.3
2022-09-07T07:13:06.291Z,24.0
2022-09-07T07:14:06.894Z,24.4
2022-09-07T07:15:07.498Z,24.1
2022-09-07T07:16:08.197Z,23.6
2022-09-07T07:17:08.752Z,23.3
2022-09-07T07:18:20.811Z,22.9
2022-09-07T07:19:10.841Z,22.5
2022-09-07T07:20:11.462Z,22.1
2022-09-07T07:21:12.038Z,21.7
2022-09-07T07:22:42.916Z,21.5
2022-09-07T07:23:14.262Z,21.4
2022-09-07T07:24:14.858Z,21.3
2022-09-07T07:25:15.461Z,20.8
2022-09-07T07:26:16.066Z,20.7
2022-09-07T07:27:16.669Z,20.6
2022-09-07T07:29:19.162Z,20.6
2022-09-07T07:30:19.713Z,20.8
2022-09-07T07:31:20.341Z,21.3
2022-09-07T07:32:20.933Z,21.9
2022-09-07T07:33:21.537Z,22.4
2022-09-07T07:34:22.203Z,22.8
2022-09-07T07:35:22.763Z,22.9
2022-09-07T07:36:23.385Z,23.2
2022-09-07T07:37:27.955Z,23.2
2022-09-07T07:40:31.005Z,23.4
2022-09-07T07:42:03.215Z,23.7
2022-09-07T07:42:31.970Z,23.6
2022-09-07T07:43:32.701Z,23.6
2022-09-07T07:44:33.253Z,23.7
2022-09-07T07:46:35.487Z,23.6
2022-09-07T07:47:36.053Z,23.3
2022-09-07T07:48:36.664Z,23.3
2022-09-07T07:49:37.258Z,23.3
2022-09-07T07:50:37.860Z,23.1
2022-09-07T07:53:42.405Z,23.1
2022-09-07T07:54:43.256Z,23.4
2022-09-07T07:55:44.430Z,23.4
2022-09-07T07:56:44.476Z,23.4
2022-09-07T07:57:45.081Z,23.4
2022-09-07T07:58:45.683Z,23.3
2022-09-07T07:59:46.313Z,23.3
2022-09-07T08:00:55.625Z,23.3
2022-09-07T08:01:48.611Z,23.3
2022-09-07T08:02:49.174Z,23.2
2022-09-07T08:03:49.728Z,23.5
2022-09-07T08:04:50.571Z,23.3
2022-09-07T08:05:51.172Z,23.4
2022-09-07T08:06:51.777Z,23.3
2022-09-07T08:07:52.379Z,23.5
2022-09-07T08:08:52.983Z,23.7
2022-09-07T08:09:53.585Z,23.9
2022-09-07T08:10:54.188Z,24.1
2022-09-07T08:11:54.792Z,24.0
2022-09-07T08:12:55.391Z,24.1
2022-09-07T08:13:56.010Z,24.2
2022-09-07T08:14:56.636Z,24.3
2022-09-07T08:15:57.292Z,24.5
2022-09-07T08:16:57.855Z,24.4
2022-09-07T08:17:58.456Z,24.5
2022-09-07T08:18:59.071Z,24.3
2022-09-07T08:19:59.774Z,24.0
2022-09-07T08:21:00.291Z,24.2
2022-09-07T08:22:00.895Z,24.2
2022-09-07T08:23:01.516Z,24.4
2022-09-07T08:24:02.117Z,24.2
2022-09-07T08:25:02.722Z,24.3
2022-09-07T08:26:03.323Z,24.4
2022-09-07T08:27:03.926Z,24.5
2022-09-07T08:28:04.539Z,24.3
2022-09-07T08:29:05.153Z,24.4
2022-09-07T08:30:05.754Z,24.8
2022-09-07T08:31:06.421Z,24.8
2022-09-07T08:32:07.083Z,24.8
2022-09-07T08:33:07.648Z,24.7
2022-09-07T08:34:08.248Z,24.8
2022-09-07T08:35:08.851Z,25.1
2022-09-07T08:36:09.454Z,25.2
2022-09-07T08:37:10.080Z,25.3
2022-09-07T08:38:10.681Z,25.4
2022-09-07T08:39:11.304Z,25.5
2022-09-07T08:40:11.983Z,25.5
2022-09-07T08:41:12.548Z,25.1
2022-09-07T08:42:13.159Z,25.0
2022-09-07T08:43:13.756Z,25.2
2022-09-07T08:44:14.358Z,25.5
2022-09-07T08:45:14.962Z,25.5
2022-09-07T08:46:15.637Z,25.1
2022-09-07T08:47:16.230Z,25.3
2022-09-07T08:48:16.849Z,25.6
2022-09-07T08:49:17.450Z,25.5
2022-09-07T08:50:18.053Z,25.8
2022-09-07T08:51:23.633Z,25.9
2022-09-07T08:52:20.255Z,26.3
2022-09-07T08:53:20.860Z,26.6
2022-09-07T08:54:21.465Z,26.7
2022-09-07T08:55:22.089Z,26.9
2022-09-07T08:56:22.689Z,26.9
2022-09-07T08:57:23.346Z,27.1
2022-09-07T08:58:47.765Z,26.8
2022-09-07T08:59:25.502Z,26.8
2022-09-07T09:00:26.105Z,27.0
2022-09-07T09:01:34.485Z,27.0
2022-09-07T09:02:30.079Z,27.3
2022-09-07T09:03:30.554Z,27.5
2022-09-07T09:04:31.547Z,27.6
2022-09-07T09:05:32.231Z,27.5
2022-09-07T09:06:32.937Z,27.5
2022-09-07T09:07:33.483Z,27.5
2022-09-07T09:08:34.086Z,27.2
2022-09-07T09:09:34.692Z,27.4
2022-09-07T09:10:35.292Z,27.6
2022-09-07T09:11:35.896Z,27.8
2022-09-07T09:12:37.849Z,27.4
2022-09-07T09:13:38.098Z,27.5
2022-09-07T09:14:38.702Z,27.3
2022-09-07T09:15:39.338Z,27.4
2022-09-07T09:16:42.750Z,27.3
2022-09-07T09:17:41.500Z,26.8
2022-09-07T09:18:42.105Z,26.3
2022-09-07T09:19:42.705Z,26.3
2022-09-07T09:20:43.307Z,26.3
2022-09-07T09:21:43.930Z,26.6
2022-09-07T09:22:44.532Z,26.4
2022-09-07T09:23:45.140Z,25.2
2022-09-07T09:24:45.759Z,25.3
2022-09-07T09:25:46.363Z,25.6
2022-09-07T09:26:46.997Z,26.1
2022-09-07T09:27:47.570Z,26.4
2022-09-07T09:28:48.193Z,26.5
2022-09-07T09:29:48.796Z,26.7
2022-09-07T09:30:49.455Z,26.8
2022-09-07T09:31:50.014Z,26.7
2022-09-07T09:32:50.634Z,26.9
2022-09-07T09:33:51.237Z,27.0
2022-09-07T09:34:51.840Z,27.0
2022-09-07T09:35:52.444Z,26.8
2022-09-07T09:36:53.046Z,26.5
2022-09-07T09:37:53.670Z,26.6
2022-09-07T09:38:54.274Z,26.7
2022-09-07T09:39:57.082Z,26.9
2022-09-07T09:40:56.474Z,26.9
2022-09-07T09:41:57.078Z,26.7
2022-09-07T09:42:57.681Z,26.8
2022-09-07T09:43:58.305Z,27.1
2022-09-07T09:44:58.927Z,27.2
2022-09-07T09:46:14.882Z,27.2
2022-09-07T09:48:02.798Z,27.3
2022-09-07T09:49:03.388Z,27.6
2022-09-07T09:50:03.979Z,27.8
2022-09-07T09:53:07.774Z,27.3
2022-09-07T09:54:08.378Z,26.9
2022-09-07T09:55:33.225Z,26.8
2022-09-07T09:56:10.575Z,26.7
2022-09-07T09:57:11.178Z,26.3
2022-09-07T10:00:23.618Z,26.3
2022-09-07T10:01:24.817Z,26.2
2022-09-07T10:04:24.401Z,26.7
2022-09-07T10:05:22.956Z,26.5
2022-09-07T10:06:23.561Z,26.3
2022-09-07T10:07:24.162Z,26.0
2022-09-07T10:08:24.765Z,26.3
2022-09-07T10:09:25.366Z,26.0
2022-09-07T10:10:26.079Z,26.0
2022-09-07T10:12:04.970Z,26.2
2022-09-07T10:12:28.206Z,26.3
2022-09-07T10:13:28.809Z,26.4
2022-09-07T10:14:29.414Z,26.4
2022-09-07T10:15:30.072Z,26.6
2022-09-07T10:16:30.702Z,26.7
2022-09-07T10:17:31.263Z,26.8
2022-09-07T10:18:31.959Z,26.7
2022-09-07T10:19:32.587Z,26.6
2022-09-07T10:20:33.210Z,26.5
2022-09-07T10:21:33.814Z,26.1
2022-09-07T10:22:34.419Z,26.0
2022-09-07T10:23:35.023Z,26.1
2022-09-07T10:24:35.627Z,26.2
2022-09-07T10:25:36.231Z,26.3
2022-09-07T10:26:36.852Z,26.2
2022-09-07T10:27:37.460Z,26.2
2022-09-07T10:29:08.310Z,26.1
2022-09-07T10:29:39.652Z,26.0
2022-09-07T10:30:40.298Z,25.9
2022-09-07T10:31:40.936Z,25.7
2022-09-07T10:32:41.507Z,25.8
2022-09-07T10:33:42.116Z,25.6
2022-09-07T10:34:42.834Z,25.6
2022-09-07T10:35:43.438Z,25.5
2022-09-07T10:36:44.091Z,25.8
2022-09-07T10:37:44.667Z,25.8
2022-09-07T10:38:45.293Z,25.7
2022-09-07T10:39:45.909Z,25.9
2022-09-07T10:40:46.496Z,26.1
2022-09-07T10:41:47.097Z,26.1
2022-09-07T10:43:49.297Z,25.7
2022-09-07T10:44:49.921Z,25.4
2022-09-07T10:45:50.591Z,25.3
2022-09-07T10:46:58.541Z,25.4
2022-09-07T10:47:52.748Z,25.6
2022-09-07T10:48:53.352Z,25.8
2022-09-07T10:50:55.572Z,25.6
2022-09-07T10:51:56.175Z,25.8
2022-09-07T10:52:56.778Z,25.9
2022-09-07T10:54:58.973Z,26.2
2022-09-07T10:55:59.578Z,26.0
2022-09-07T10:57:00.181Z,26.0
2022-09-07T10:58:00.783Z,26.1
2022-09-07T10:59:02.240Z,26.0
2022-09-07T11:00:10.551Z,26.0
2022-09-07T11:01:04.621Z,26.0
2022-09-07T11:02:05.172Z,26.0
2022-09-07T11:04:07.373Z,25.8
2022-09-07T11:05:07.975Z,25.5
2022-09-07T11:06:08.576Z,25.7
2022-09-07T11:07:13.624Z,26.1
2022-09-07T11:08:09.800Z,26.3
2022-09-07T11:09:18.518Z,26.4
2022-09-07T11:10:12.025Z,26.5
2022-09-07T11:11:12.631Z,26.6
2022-09-07T11:12:13.234Z,26.8
2022-09-07T11:13:13.840Z,26.7
2022-09-07T11:14:14.442Z,26.4
2022-09-07T11:15:15.048Z,26.4
2022-09-07T11:17:17.247Z,26.8
2022-09-07T11:18:17.849Z,27.0
2022-09-07T11:20:20.047Z,26.7
2022-09-07T11:22:22.269Z,26.6
2022-09-07T11:23:22.874Z,26.6
2022-09-07T11:24:23.502Z,26.4
2022-09-07T11:25:31.345Z,26.4
2022-09-07T11:26:25.719Z,26.5
2022-09-07T11:27:26.325Z,26.5
2022-09-07T11:28:26.928Z,26.7
2022-09-07T11:29:30.512Z,26.7
2022-09-07T11:30:29.148Z,26.6
2022-09-07T11:31:29.753Z,26.5
2022-09-07T11:32:30.354Z,26.5
2022-09-07T11:33:30.956Z,26.7
2022-09-07T11:34:31.561Z,26.8
2022-09-07T11:35:32.162Z,26.7
2022-09-07T11:36:32.769Z,26.8
2022-09-07T11:37:33.375Z,26.7
2022-09-07T11:38:33.980Z,26.6
2022-09-07T11:39:34.625Z,26.8
2022-09-07T11:40:35.211Z,26.9
2022-09-07T11:41:35.814Z,27.0
2022-09-07T11:42:44.111Z,27.1
2022-09-07T11:43:38.012Z,26.6
2022-09-07T11:44:38.618Z,26.5
2022-09-07T11:45:39.222Z,26.7
2022-09-07T11:46:39.911Z,26.9
2022-09-07T11:47:40.497Z,26.3
2022-09-07T11:48:41.101Z,26.3
2022-09-07T11:49:41.702Z,26.5
2022-09-07T11:50:42.307Z,26.7
2022-09-07T11:51:42.916Z,26.9
2022-09-07T11:52:43.538Z,26.8
2022-09-07T11:53:44.162Z,26.8
2022-09-07T11:54:44.770Z,26.2
2022-09-07T11:55:45.369Z,26.2
2022-09-07T11:56:46.071Z,26.3
2022-09-07T11:57:46.614Z,26.7
2022-09-07T11:58:47.221Z,27.0
2022-09-07T11:59:47.841Z,27.2
2022-09-07T12:00:48.447Z,27.3
2022-09-07T12:01:49.052Z,27.6
2022-09-07T12:02:59.419Z,27.6
2022-09-07T12:03:51.390Z,27.8
2022-09-07T12:04:56.134Z,27.9
2022-09-07T12:05:52.607Z,28.0
2022-09-07T12:06:53.213Z,27.2
2022-09-07T12:07:53.817Z,27.0
2022-09-07T12:08:54.422Z,26.9
2022-09-07T12:09:55.026Z,27.2
2022-09-07T12:10:55.637Z,27.4
2022-09-07T12:11:56.254Z,27.1
2022-09-07T12:12:56.875Z,26.7
2022-09-07T12:13:57.461Z,26.7
2022-09-07T12:14:58.065Z,26.7
2022-09-07T12:15:58.708Z,26.6
2022-09-07T12:16:59.271Z,26.8
2022-09-07T12:17:59.875Z,26.9
2022-09-07T12:19:00.483Z,26.9
2022-09-07T12:20:01.083Z,26.8
2022-09-07T12:21:01.690Z,26.8
2022-09-07T12:22:02.298Z,26.8
2022-09-07T12:23:05.244Z,26.8
2022-09-07T12:24:04.500Z,26.6
2022-09-07T12:25:05.101Z,26.3
2022-09-07T12:26:05.705Z,26.4
2022-09-07T12:27:06.304Z,26.4
2022-09-07T12:28:06.927Z,26.2
2022-09-07T12:29:07.535Z,26.2
2022-09-07T12:30:08.138Z,26.2
2022-09-07T12:31:08.798Z,26.2
2022-09-07T12:33:10.960Z,26.2
2022-09-07T12:34:11.563Z,26.3
2022-09-07T12:35:12.169Z,26.3
2022-09-07T12:36:12.774Z,26.5
2022-09-07T12:37:13.379Z,26.8
2022-09-07T12:38:13.982Z,27.2
2022-09-07T12:39:14.588Z,27.5
2022-09-07T12:40:15.242Z,27.6
2022-09-07T12:41:15.811Z,27.9
2022-09-07T12:42:32.473Z,27.8
2022-09-07T12:43:18.013Z,27.6
2022-09-07T12:44:18.616Z,27.3
2022-09-07T12:45:19.224Z,27.1
2022-09-07T12:46:19.878Z,27.0
2022-09-07T12:47:20.488Z,26.9
2022-09-07T12:48:21.091Z,26.9
2022-09-07T12:49:21.695Z,26.9
2022-09-07T12:50:22.299Z,26.7
2022-09-07T12:52:24.499Z,26.9
2022-09-07T12:53:25.104Z,27.0
2022-09-07T12:54:25.707Z,27.2
2022-09-07T12:55:29.194Z,27.3
2022-09-07T12:56:27.905Z,27.5
2022-09-07T12:57:29.812Z,27.5
2022-09-07T12:58:30.052Z,27.5
2022-09-07T12:59:30.618Z,27.6
2022-09-07T13:00:31.221Z,27.8
2022-09-07T13:01:31.950Z,27.8
2022-09-07T13:02:32.703Z,27.9
2022-09-07T13:04:34.926Z,27.5
2022-09-07T13:05:35.532Z,26.8
2022-09-07T13:07:37.730Z,26.8
2022-09-07T13:08:38.332Z,26.8
2022-09-07T13:09:38.938Z,26.8
2022-09-07T13:10:39.541Z,26.7
2022-09-07T13:11:40.145Z,26.7
2022-09-07T13:14:43.990Z,26.7
2022-09-07T13:15:44.591Z,26.7
2022-09-07T13:17:46.761Z,27.1
2022-09-07T13:18:47.387Z,27.2
2022-09-07T13:19:47.993Z,27.5
2022-09-07T13:20:48.599Z,27.6
2022-09-07T13:21:49.221Z,27.7
2022-09-07T13:22:49.824Z,27.5
2022-09-07T13:23:50.463Z,27.1
2022-09-07T13:24:51.217Z,26.8
2022-09-07T13:25:51.814Z,26.7
2022-09-07T13:26:52.416Z,26.7
2022-09-07T13:27:53.021Z,26.8
2022-09-07T13:28:54.803Z,26.8
2022-09-07T13:29:55.379Z,26.8
2022-09-07T13:30:55.975Z,27.0
2022-09-07T13:31:56.538Z,27.2
2022-09-07T13:33:12.530Z,27.3
2022-09-07T13:33:58.740Z,27.3
2022-09-07T13:34:59.343Z,27.1
2022-09-07T13:35:59.947Z,27.3
2022-09-07T13:37:00.553Z,27.4
2022-09-07T13:38:01.162Z,27.3
2022-09-07T13:39:01.802Z,27.2
2022-09-07T13:40:02.453Z,27.0
2022-09-07T13:41:03.044Z,27.0
2022-09-07T13:42:03.649Z,27.0
2022-09-07T13:43:04.253Z,27.0
2022-09-07T13:44:04.868Z,27.0
2022-09-07T13:45:05.458Z,27.1
2022-09-07T13:46:06.088Z,27.0
2022-09-07T13:47:06.662Z,26.9
2022-09-07T13:48:07.269Z,26.6
2022-09-07T13:49:07.868Z,26.6
2022-09-07T13:50:08.476Z,26.5
2022-09-07T13:51:09.080Z,26.7
2022-09-07T13:52:09.690Z,26.7
2022-09-07T13:53:10.289Z,26.7
2022-09-07T13:54:10.942Z,26.8
2022-09-07T13:55:11.520Z,26.8
2022-09-07T13:56:12.144Z,26.8
2022-09-07T13:57:12.748Z,26.9
2022-09-07T13:58:13.352Z,27.1
2022-09-07T13:59:13.956Z,27.1
2022-09-07T14:00:14.580Z,27.4
2022-09-07T14:01:15.232Z,27.3
2022-09-07T14:02:15.856Z,27.3
2022-09-07T14:03:16.489Z,27.1
2022-09-07T14:04:17.093Z,26.8
2022-09-07T14:05:17.695Z,26.7
2022-09-07T14:06:18.301Z,26.6